Aeroporto :







RITROVATECI SU...

 
LOGIN :

Iscrizione | Disclaimer

   EN    FR    IT 

 









Sommario :    VFR   VFR Marginale   IFR   IFR Intensivo   IFR Molto Intensivo
Visibilità : 
Base nubi : 
>= 8 km
>= 3000ft
5 / 8 km
1000 / 3000 ft
1500m / 5 km
500 / 1000 ft
800 / 1500m
200 / 500 ft
< 800m
< 200 ft
Simboli :   Temporali  Nebbia  Neve Forte  Precipitazioni Forti  Vento > 20 kt






- Altitudine del aeroporto : 474 ft


KPTD - Potsdam Municipal-Damon field

ULTIMO METAR :
  • 151415Z AUTO VRB05KT 10SM CLR 01/M02 A2998 RMK AO2

METARs OBSOLETI :
  • 151355Z AUTO 10005KT 10SM CLR 00/M02 A2998 RMK AO2
  • 151335Z AUTO 11005KT 10SM CLR M00/M02 A2998 RMK AO2
  • 151315Z AUTO 11005KT 10SM CLR M01/M02 A2997 RMK AO2
  • 151255Z AUTO 00000KT 8SM SCT039 M01/M02 A2997 RMK AO2
  • 151235Z AUTO 14003KT 5SM BR OVC039 M01/M02 A2997 RMK AO2
  • 151215Z AUTO 00000KT 3SM BR OVC039 M02/M02 A2997 RMK AO2
  • 151155Z AUTO 00000KT 3SM BR OVC039 M02/M02 A2997 RMK AO2
  • 151135Z AUTO 05003KT 3SM BR OVC040 M02/M02 A2997 RMK AO2

TAF N/A
FIR KZBW / America del Nord



MetMap, La meteo Aeronautica in un colpo d'occhio ! - Copyright ORBIFLY Dicembre 2007 - Disclaimer

ORBIFLY MET'MAP TEAM :

Programmazione e sviluppo : Alexandra Zaïnal
Concezione : Baudouin d'Aumeries
Aiuto per la programmazione : Marc-Olivier Méhu
Supporto tecnico e logistico : Manuel Goepfert
Aiuto per la traduzione : Arnaldo La Scala

Contatto : metmap@orbifly.com




FONTI E CREDITI :

   NOAA